createdAt,value
2023-04-22T00:00:15.205Z,8.37
2023-04-22T00:02:42.399Z,8.33
2023-04-22T00:05:13.610Z,8.93
2023-04-22T00:07:43.073Z,10.23
2023-04-22T00:10:11.508Z,8.67
2023-04-22T00:12:38.844Z,9.13
2023-04-22T00:15:06.608Z,9.63
2023-04-22T00:17:34.098Z,10.93
2023-04-22T00:20:01.996Z,11.40
2023-04-22T00:22:29.108Z,8.97
2023-04-22T00:24:56.281Z,11.80
2023-04-22T00:27:23.428Z,8.47
2023-04-22T00:29:50.700Z,8.27
2023-04-22T00:32:17.811Z,9.17
2023-04-22T00:34:44.867Z,8.93
2023-04-22T00:37:12.108Z,7.50
2023-04-22T00:39:42.098Z,8.40
2023-04-22T00:42:10.488Z,12.17
2023-04-22T00:44:37.688Z,9.93
2023-04-22T00:47:06.335Z,10.10
2023-04-22T00:49:33.435Z,8.13
2023-04-22T00:52:00.597Z,8.00
2023-04-22T00:54:28.786Z,7.47
2023-04-22T00:56:57.826Z,10.60
2023-04-22T00:59:26.171Z,9.10
2023-04-22T01:01:53.962Z,10.67
2023-04-22T01:04:22.054Z,9.07
2023-04-22T01:06:49.824Z,8.97
2023-04-22T01:09:17.019Z,10.47
2023-04-22T01:11:44.102Z,10.37
2023-04-22T01:14:11.243Z,11.37
2023-04-22T01:16:39.190Z,11.83
2023-04-22T01:19:08.399Z,9.53
2023-04-22T01:21:35.844Z,9.23
2023-04-22T01:24:03.157Z,8.43
2023-04-22T01:26:30.342Z,14.10
2023-04-22T01:28:57.583Z,11.20
2023-04-22T01:31:25.026Z,11.70
2023-04-22T01:33:52.369Z,10.83
2023-04-22T01:36:19.461Z,11.10
2023-04-22T01:38:46.643Z,12.17
2023-04-22T01:41:14.851Z,9.70
2023-04-22T01:43:42.766Z,10.10
2023-04-22T01:46:10.384Z,10.10
2023-04-22T01:48:37.959Z,9.70
2023-04-22T01:51:05.113Z,8.97
2023-04-22T01:53:32.229Z,9.10
2023-04-22T01:56:00.427Z,9.90
2023-04-22T01:58:29.752Z,9.60
2023-04-22T02:00:56.872Z,8.23
2023-04-22T02:03:24.250Z,9.77
2023-04-22T02:05:51.459Z,9.37
2023-04-22T02:08:18.522Z,9.00
2023-04-22T02:10:45.599Z,9.07
2023-04-22T02:13:12.767Z,9.57
2023-04-22T02:15:41.384Z,8.60
2023-04-22T02:18:10.168Z,11.47
2023-04-22T02:20:37.613Z,9.13
2023-04-22T02:23:05.264Z,8.47
2023-04-22T02:25:32.363Z,8.70
2023-04-22T02:27:59.510Z,10.47
2023-04-22T02:30:26.595Z,9.00
2023-04-22T02:32:53.694Z,9.00
2023-04-22T02:35:20.925Z,10.23
2023-04-22T02:37:48.044Z,8.63
2023-04-22T02:40:15.143Z,10.30
2023-04-22T02:42:42.239Z,10.43
2023-04-22T02:45:09.553Z,8.00
2023-04-22T02:47:36.654Z,9.07
2023-04-22T02:50:03.938Z,8.33
2023-04-22T02:52:31.088Z,7.90
2023-04-22T02:54:58.215Z,9.20
2023-04-22T02:57:25.338Z,6.70
2023-04-22T02:59:52.509Z,8.10
2023-04-22T03:02:19.696Z,8.13
2023-04-22T03:04:46.950Z,7.03
2023-04-22T03:07:14.392Z,9.23
2023-04-22T03:09:41.693Z,7.30
2023-04-22T03:12:09.136Z,6.93
2023-04-22T03:14:36.199Z,10.47
2023-04-22T03:17:03.397Z,11.60
2023-04-22T03:19:30.523Z,7.47
2023-04-22T03:21:59.187Z,9.03
2023-04-22T03:24:26.283Z,7.80
2023-04-22T03:26:53.383Z,11.43
2023-04-22T03:29:20.470Z,7.37
2023-04-22T03:31:47.548Z,6.67
2023-04-22T03:34:14.726Z,6.30
2023-04-22T03:36:41.781Z,8.17
2023-04-22T03:39:08.979Z,6.70
2023-04-22T03:41:36.038Z,7.43
2023-04-22T03:44:03.095Z,7.00
2023-04-22T03:46:30.802Z,8.17
2023-04-22T03:48:57.950Z,7.77
2023-04-22T03:51:25.039Z,7.83
2023-04-22T03:53:52.132Z,6.90
2023-04-22T03:56:19.271Z,6.30
2023-04-22T03:58:46.503Z,7.07
2023-04-22T04:01:13.618Z,7.63
2023-04-22T04:03:41.073Z,6.67
2023-04-22T04:06:08.633Z,6.47
2023-04-22T04:08:35.696Z,6.53
2023-04-22T04:11:02.829Z,7.60
2023-04-22T04:13:32.196Z,8.77
2023-04-22T04:16:00.292Z,7.63
2023-04-22T04:18:29.491Z,9.70
2023-04-22T04:20:56.959Z,7.97
2023-04-22T04:23:24.032Z,6.93
2023-04-22T04:25:51.935Z,8.73
2023-04-22T04:28:19.678Z,8.17
2023-04-22T04:30:47.105Z,7.57
2023-04-22T04:33:16.767Z,6.83
2023-04-22T04:35:44.750Z,6.57
2023-04-22T04:38:12.772Z,7.80
2023-04-22T04:40:39.848Z,7.57
2023-04-22T04:43:08.812Z,6.53
2023-04-22T04:45:39.213Z,9.50
2023-04-22T04:48:07.325Z,8.93
2023-04-22T04:50:34.470Z,10.63
2023-04-22T04:53:02.358Z,8.43
2023-04-22T04:55:29.501Z,10.53
2023-04-22T04:57:56.605Z,9.23
2023-04-22T05:00:23.666Z,9.07
2023-04-22T05:02:51.033Z,9.43
2023-04-22T05:05:18.365Z,10.97
2023-04-22T05:07:45.647Z,8.17
2023-04-22T05:10:13.028Z,10.50
2023-04-22T05:12:40.900Z,8.30
2023-04-22T05:15:08.503Z,8.97
2023-04-22T05:17:35.622Z,8.07
2023-04-22T05:20:03.143Z,10.27
2023-04-22T05:22:30.239Z,7.40
2023-04-22T05:24:57.376Z,7.20
2023-04-22T05:27:24.568Z,7.60
2023-04-22T05:29:51.686Z,7.73
2023-04-22T05:32:18.824Z,6.87
2023-04-22T05:34:46.185Z,7.00
2023-04-22T05:37:13.347Z,10.27
2023-04-22T05:39:41.374Z,7.17
2023-04-22T05:42:09.031Z,6.80
2023-04-22T05:44:36.109Z,6.67
2023-04-22T05:47:03.351Z,6.13
2023-04-22T05:49:30.466Z,6.87
2023-04-22T05:51:57.528Z,7.37
2023-04-22T05:54:24.719Z,7.23
2023-04-22T05:56:51.989Z,5.90
2023-04-22T05:59:20.338Z,11.30
2023-04-22T06:01:48.913Z,9.00
2023-04-22T06:04:16.222Z,11.70
2023-04-22T06:06:43.548Z,7.27
2023-04-22T06:09:10.727Z,6.80
2023-04-22T06:11:37.857Z,5.43
2023-04-22T06:14:04.958Z,7.03
2023-04-22T06:16:32.112Z,4.27
2023-04-22T06:18:59.252Z,5.13
2023-04-22T06:21:26.689Z,5.13
2023-04-22T06:23:53.794Z,7.27
2023-04-22T06:26:20.902Z,4.70
2023-04-22T06:28:47.955Z,8.63
2023-04-22T06:31:15.091Z,3.87
2023-04-22T06:33:42.205Z,7.27
2023-04-22T06:36:09.609Z,5.13
2023-04-22T06:38:36.692Z,5.13
2023-04-22T06:41:03.800Z,3.60
2023-04-22T06:43:30.877Z,4.33
2023-04-22T06:45:57.960Z,6.43
2023-04-22T06:48:25.046Z,4.93
2023-04-22T06:50:52.177Z,3.60
2023-04-22T06:53:19.312Z,5.73
2023-04-22T06:55:46.728Z,3.30
2023-04-22T06:58:13.847Z,2.97
2023-04-22T07:00:40.991Z,5.00
2023-04-22T07:03:11.234Z,3.73
2023-04-22T07:05:39.758Z,3.27
2023-04-22T07:08:07.118Z,2.60
2023-04-22T07:10:34.449Z,3.47
2023-04-22T07:13:01.628Z,4.50
2023-04-22T07:15:28.824Z,3.13
2023-04-22T07:17:55.961Z,3.23
2023-04-22T07:20:23.237Z,3.20
2023-04-22T07:22:50.379Z,2.57
2023-04-22T07:25:17.561Z,3.20
2023-04-22T07:27:44.658Z,5.17
2023-04-22T07:30:13.325Z,2.73
2023-04-22T07:32:40.644Z,2.97
2023-04-22T07:35:08.990Z,3.40
2023-04-22T07:37:36.184Z,3.13
2023-04-22T07:40:03.336Z,4.07
2023-04-22T07:42:30.910Z,2.67
2023-04-22T07:44:57.982Z,4.72
2023-04-22T07:47:25.676Z,2.92
2023-04-22T07:49:52.754Z,3.05
2023-04-22T07:52:20.953Z,2.95
2023-04-22T07:54:48.065Z,9.15
2023-04-22T07:57:15.218Z,3.33
2023-04-22T07:59:42.399Z,3.10
2023-04-22T08:02:09.767Z,3.78
2023-04-22T08:04:37.473Z,2.65
2023-04-22T08:07:17.148Z,2.20
2023-04-22T08:09:52.184Z,2.20
2023-04-22T08:12:19.386Z,6.22
2023-04-22T08:14:46.457Z,3.05
2023-04-22T08:17:13.597Z,2.45
2023-04-22T08:19:40.914Z,2.97
2023-04-22T08:22:08.572Z,4.03
2023-04-22T08:24:35.670Z,2.78
2023-04-22T08:27:02.878Z,4.40
2023-04-22T08:29:29.956Z,3.97
2023-04-22T08:31:57.018Z,4.35
2023-04-22T08:34:26.100Z,2.20
2023-04-22T08:36:53.179Z,2.47
2023-04-22T08:39:20.327Z,4.57
2023-04-22T08:41:47.698Z,2.80
2023-04-22T08:44:15.489Z,9.65
2023-04-22T08:46:49.021Z,2.78
2023-04-22T08:49:16.347Z,2.58
2023-04-22T08:51:44.096Z,5.13
2023-04-22T08:54:11.658Z,2.17
2023-04-22T08:56:42.581Z,3.00
2023-04-22T08:59:11.409Z,4.68
2023-04-22T09:01:42.207Z,2.63
2023-04-22T09:04:14.055Z,3.42
2023-04-22T09:06:40.901Z,6.60
2023-04-22T09:09:08.878Z,3.15
2023-04-22T09:11:36.252Z,3.28
2023-04-22T09:14:06.644Z,3.47
2023-04-22T09:16:42.976Z,3.63
2023-04-22T09:19:13.775Z,2.20
2023-04-22T09:21:41.409Z,3.38
2023-04-22T09:24:10.719Z,2.67
2023-04-22T09:26:42.277Z,3.13
2023-04-22T09:29:14.432Z,4.55
2023-04-22T09:31:41.426Z,3.60
2023-04-22T09:34:08.981Z,3.60
2023-04-22T09:36:37.836Z,2.50
2023-04-22T09:39:08.852Z,2.53
2023-04-22T09:41:36.750Z,3.13
2023-04-22T09:44:04.748Z,3.50
2023-04-22T09:46:33.884Z,2.95
2023-04-22T09:49:00.886Z,2.60
2023-04-22T09:51:28.588Z,2.30
2023-04-22T09:54:04.226Z,3.90
2023-04-22T09:56:49.419Z,2.53
2023-04-22T09:59:22.027Z,5.70
2023-04-22T10:01:49.883Z,5.03
2023-04-22T10:04:21.366Z,5.38
2023-04-22T10:06:49.184Z,2.85
2023-04-22T10:09:20.456Z,3.88
2023-04-22T10:11:49.371Z,4.40
2023-04-22T10:14:16.345Z,6.40
2023-04-22T10:16:47.873Z,9.27
2023-04-22T10:19:21.711Z,2.42
2023-04-22T10:21:52.272Z,3.85
2023-04-22T10:24:19.755Z,4.78
2023-04-22T10:26:59.823Z,2.95
2023-04-22T10:29:34.846Z,2.47
2023-04-22T10:32:17.435Z,3.05
2023-04-22T10:34:48.178Z,4.05
2023-04-22T10:37:18.851Z,4.38
2023-04-22T10:40:16.040Z,4.18
2023-04-22T10:42:49.161Z,5.50
2023-04-22T10:45:16.026Z,7.28
2023-04-22T10:47:43.636Z,2.40
2023-04-22T10:50:21.754Z,5.28
2023-04-22T10:52:52.873Z,3.08
2023-04-22T10:55:21.328Z,2.72
2023-04-22T10:57:49.902Z,2.85
2023-04-22T11:00:17.225Z,2.72
2023-04-22T11:02:51.840Z,2.75
2023-04-22T11:05:25.954Z,3.10
2023-04-22T11:07:55.881Z,3.95
2023-04-22T11:10:44.165Z,4.28
2023-04-22T11:13:13.840Z,5.13
2023-04-22T11:15:41.975Z,2.75
2023-04-22T11:18:11.183Z,3.90
2023-04-22T11:20:38.660Z,3.88
2023-04-22T11:23:05.808Z,9.60
2023-04-22T11:25:32.965Z,7.07
2023-04-22T11:28:00.285Z,2.67
2023-04-22T11:30:28.116Z,2.63
2023-04-22T11:32:56.815Z,2.88
2023-04-22T11:35:34.641Z,3.28
2023-04-22T11:38:06.458Z,4.30
2023-04-22T11:40:37.806Z,2.20
2023-04-22T11:43:07.593Z,2.80
2023-04-22T11:45:35.902Z,1.80
2023-04-22T11:48:03.669Z,3.67
2023-04-22T11:50:32.305Z,3.45
2023-04-22T11:53:03.891Z,3.15
2023-04-22T11:55:30.988Z,3.25
2023-04-22T11:57:59.466Z,2.63
2023-04-22T12:00:34.146Z,4.82
2023-04-22T12:03:19.819Z,3.53
2023-04-22T12:05:48.285Z,2.58
2023-04-22T12:08:16.477Z,2.75
2023-04-22T12:10:45.194Z,3.05
2023-04-22T12:13:30.257Z,2.88
2023-04-22T12:15:59.716Z,4.30
2023-04-22T12:18:30.755Z,3.67
2023-04-22T12:21:17.691Z,2.63
2023-04-22T12:23:44.790Z,3.47
2023-04-22T12:26:15.130Z,6.88
2023-04-22T12:28:44.156Z,3.53
2023-04-22T12:31:11.703Z,2.85
2023-04-22T12:33:39.332Z,2.53
2023-04-22T12:36:07.370Z,3.05
2023-04-22T12:38:34.876Z,2.83
2023-04-22T12:41:02.327Z,3.22
2023-04-22T12:43:29.459Z,5.00
2023-04-22T12:45:56.603Z,3.53
2023-04-22T12:48:23.686Z,3.17
2023-04-22T12:50:50.769Z,2.90
2023-04-22T12:53:17.832Z,3.08
2023-04-22T12:55:46.104Z,2.92
2023-04-22T12:58:13.431Z,2.97
2023-04-22T13:00:40.868Z,4.32
2023-04-22T13:03:08.463Z,4.75
2023-04-22T13:05:35.923Z,4.57
2023-04-22T13:08:07.520Z,3.78
2023-04-22T13:10:35.664Z,3.33
2023-04-22T13:13:16.846Z,4.85
2023-04-22T13:15:45.366Z,4.15
2023-04-22T13:18:12.535Z,3.95
2023-04-22T13:20:40.805Z,7.25
2023-04-22T13:23:08.309Z,4.05
2023-04-22T13:25:36.140Z,3.15
2023-04-22T13:28:03.242Z,3.88
2023-04-22T13:30:30.335Z,7.15
2023-04-22T13:32:57.457Z,3.70
2023-04-22T13:35:24.744Z,8.50
2023-04-22T13:37:51.836Z,6.07
2023-04-22T13:40:18.979Z,3.97
2023-04-22T13:42:46.111Z,4.55
2023-04-22T13:45:13.249Z,5.57
2023-04-22T13:47:40.558Z,4.07
2023-04-22T13:50:07.983Z,7.88
2023-04-22T13:52:35.222Z,7.03
2023-04-22T13:55:03.544Z,6.45
2023-04-22T13:57:30.685Z,4.78
2023-04-22T13:59:57.828Z,4.40
2023-04-22T14:02:25.058Z,6.18
2023-04-22T14:04:52.324Z,6.63
2023-04-22T14:07:19.794Z,6.13
2023-04-22T14:09:47.100Z,5.00
2023-04-22T14:12:14.455Z,7.68
2023-04-22T14:14:41.543Z,4.45
2023-04-22T14:17:08.866Z,5.03
2023-04-22T14:19:39.396Z,3.80
2023-04-22T14:22:06.867Z,3.60
2023-04-22T14:24:34.079Z,3.67
2023-04-22T14:27:03.993Z,3.30
2023-04-22T14:29:31.800Z,3.55
2023-04-22T14:31:59.398Z,4.07
2023-04-22T14:34:27.337Z,4.28
2023-04-22T14:36:54.830Z,8.55
2023-04-22T14:39:22.059Z,5.55
2023-04-22T14:41:49.739Z,4.45
2023-04-22T14:44:17.252Z,5.20
2023-04-22T14:46:45.170Z,7.82
2023-04-22T14:49:12.287Z,4.32
2023-04-22T14:51:39.418Z,4.68
2023-04-22T14:54:06.771Z,7.15
2023-04-22T14:56:33.887Z,12.60
2023-04-22T14:59:01.075Z,16.27
2023-04-22T15:01:28.129Z,11.65
2023-04-22T15:03:55.360Z,9.63
2023-04-22T15:06:23.479Z,5.75
2023-04-22T15:08:51.878Z,7.75
2023-04-22T15:11:19.170Z,5.05
2023-04-22T15:13:46.261Z,7.60
2023-04-22T15:16:13.584Z,6.35
2023-04-22T15:18:40.793Z,5.90
2023-04-22T15:21:10.444Z,6.28
2023-04-22T15:23:37.679Z,6.20
2023-04-22T15:26:04.832Z,6.50
2023-04-22T15:28:32.102Z,5.32
2023-04-22T15:30:59.266Z,6.00
2023-04-22T15:33:26.369Z,7.68
2023-04-22T15:35:53.472Z,5.53
2023-04-22T15:38:21.087Z,6.63
2023-04-22T15:40:48.155Z,6.53
2023-04-22T15:43:15.448Z,4.25
2023-04-22T15:45:43.108Z,6.32
2023-04-22T15:48:10.372Z,6.32
2023-04-22T15:50:38.869Z,4.82
2023-04-22T15:53:06.691Z,6.03
2023-04-22T15:55:33.349Z,5.20
2023-04-22T15:58:00.549Z,6.63
2023-04-22T16:00:27.338Z,5.15
2023-04-22T16:02:57.428Z,5.55
2023-04-22T16:05:25.172Z,8.82
2023-04-22T16:07:54.005Z,7.47
2023-04-22T16:10:21.505Z,5.55
2023-04-22T16:12:48.705Z,7.95
2023-04-22T16:15:16.527Z,5.90
2023-04-22T16:17:44.273Z,17.98
2023-04-22T16:20:11.516Z,4.13
2023-04-22T16:22:38.640Z,6.25
2023-04-22T16:25:06.132Z,5.38
2023-04-22T16:27:33.282Z,9.82
2023-04-22T16:30:00.519Z,6.13
2023-04-22T16:32:27.681Z,8.02
2023-04-22T16:34:54.873Z,8.77
2023-04-22T16:37:21.986Z,24.38
2023-04-22T16:39:49.254Z,6.50
2023-04-22T16:42:16.349Z,6.82
2023-04-22T16:44:43.510Z,4.63
2023-04-22T16:47:10.770Z,4.82
2023-04-22T16:49:40.779Z,4.57
2023-04-22T16:52:08.495Z,5.85
2023-04-22T16:54:35.666Z,5.28
2023-04-22T16:57:04.960Z,7.75
2023-04-22T16:59:32.066Z,8.95
2023-04-22T17:01:59.255Z,7.22
2023-04-22T17:04:26.897Z,8.73
2023-04-22T17:06:54.225Z,7.18
2023-04-22T17:09:21.356Z,7.18
2023-04-22T17:11:48.448Z,9.35
2023-04-22T17:14:15.545Z,6.20
2023-04-22T17:16:42.629Z,5.78
2023-04-22T17:19:09.678Z,6.32
2023-04-22T17:21:37.584Z,7.05
2023-04-22T17:24:05.813Z,9.35
2023-04-22T17:26:33.613Z,8.10
2023-04-22T17:29:00.781Z,8.30
2023-04-22T17:31:27.954Z,11.27
2023-04-22T17:33:55.065Z,8.68
2023-04-22T17:36:22.174Z,8.85
2023-04-22T17:38:49.258Z,6.05
2023-04-22T17:41:18.239Z,8.98
2023-04-22T17:43:45.440Z,7.07
2023-04-22T17:46:12.617Z,6.55
2023-04-22T17:48:40.938Z,9.07
2023-04-22T17:51:08.513Z,7.10
2023-04-22T17:53:37.480Z,7.10
2023-04-22T17:56:04.677Z,7.57
2023-04-22T17:58:31.833Z,8.18
2023-04-22T18:00:59.114Z,8.98
2023-04-22T18:03:26.584Z,7.47
2023-04-22T18:05:53.800Z,13.48
2023-04-22T18:08:20.925Z,6.90
2023-04-22T18:10:48.263Z,5.30
2023-04-22T18:13:15.372Z,4.28
2023-04-22T18:15:42.453Z,4.30
2023-04-22T18:18:09.560Z,5.18
2023-04-22T18:20:36.716Z,5.20
2023-04-22T18:23:03.910Z,5.20
2023-04-22T18:25:31.043Z,8.70
2023-04-22T18:27:58.187Z,6.28
2023-04-22T18:30:25.578Z,7.40
2023-04-22T18:32:53.201Z,4.55
2023-04-22T18:35:20.761Z,9.13
2023-04-22T18:37:48.247Z,4.28
2023-04-22T18:40:17.154Z,4.68
2023-04-22T18:42:44.986Z,5.80
2023-04-22T18:45:12.404Z,4.13
2023-04-22T18:47:39.671Z,4.05
2023-04-22T18:50:07.341Z,5.43
2023-04-22T18:52:34.541Z,5.45
2023-04-22T18:55:03.036Z,3.50
2023-04-22T18:57:30.145Z,4.90
2023-04-22T18:59:57.226Z,4.45
2023-04-22T19:02:24.401Z,3.88
2023-04-22T19:04:54.117Z,5.30
2023-04-22T19:07:21.492Z,5.70
2023-04-22T19:09:48.650Z,7.03
2023-04-22T19:12:18.858Z,4.85
2023-04-22T19:14:47.811Z,4.80
2023-04-22T19:17:15.056Z,6.22
2023-04-22T19:19:42.517Z,6.07
2023-04-22T19:22:09.985Z,6.17
2023-04-22T19:24:39.280Z,6.73
2023-04-22T19:27:12.120Z,8.37
2023-04-22T19:29:43.026Z,9.47
2023-04-22T19:32:11.583Z,14.50
2023-04-22T19:34:39.293Z,14.47
2023-04-22T19:37:06.685Z,14.10
2023-04-22T19:39:33.847Z,11.80
2023-04-22T19:42:03.716Z,11.57
2023-04-22T19:44:31.002Z,14.30
2023-04-22T19:46:58.210Z,9.73
2023-04-22T19:49:25.642Z,12.00
2023-04-22T19:51:53.157Z,10.37
2023-04-22T19:54:22.189Z,11.93
2023-04-22T19:56:49.801Z,11.17
2023-04-22T19:59:17.060Z,20.27
2023-04-22T20:01:44.289Z,14.87
2023-04-22T20:04:11.641Z,15.77
2023-04-22T20:06:39.477Z,32.47
2023-04-22T20:09:07.616Z,44.60
2023-04-22T20:11:35.524Z,37.23
2023-04-22T20:14:03.125Z,25.77
2023-04-22T20:16:30.366Z,22.47
2023-04-22T20:18:57.513Z,28.30
2023-04-22T20:21:24.686Z,25.00
2023-04-22T20:23:52.815Z,23.87
2023-04-22T20:26:20.675Z,18.33
2023-04-22T20:28:51.820Z,20.50
2023-04-22T20:31:22.263Z,20.10
2023-04-22T20:33:50.121Z,20.77
2023-04-22T20:36:18.098Z,26.37
2023-04-22T20:38:48.808Z,26.40
2023-04-22T20:41:18.699Z,28.43
2023-04-22T20:43:46.473Z,30.80
2023-04-22T20:46:13.704Z,31.60
2023-04-22T20:48:41.223Z,29.03
2023-04-22T20:51:08.594Z,34.00
2023-04-22T20:53:36.238Z,29.83
2023-04-22T20:56:03.437Z,27.93
2023-04-22T20:58:32.416Z,29.17
2023-04-22T21:00:59.685Z,28.43
2023-04-22T21:03:27.707Z,28.27
2023-04-22T21:05:55.688Z,26.70
2023-04-22T21:08:26.087Z,25.80
2023-04-22T21:10:54.440Z,25.80
2023-04-22T21:13:22.001Z,29.10
2023-04-22T21:15:52.019Z,28.40
2023-04-22T21:18:21.781Z,29.63
2023-04-22T21:20:51.295Z,31.10
2023-04-22T21:23:20.446Z,33.43
2023-04-22T21:25:48.609Z,28.97
2023-04-22T21:28:16.168Z,32.13
2023-04-22T21:30:43.665Z,30.30
2023-04-22T21:33:10.785Z,32.93
2023-04-22T21:35:39.303Z,34.70
2023-04-22T21:38:06.413Z,30.47
2023-04-22T21:40:33.582Z,32.23
2023-04-22T21:43:00.726Z,33.70
2023-04-22T21:45:28.436Z,36.63
2023-04-22T21:47:55.609Z,36.00
2023-04-22T21:50:24.352Z,37.17
2023-04-22T21:52:51.742Z,40.63
2023-04-22T21:55:19.552Z,39.97
2023-04-22T21:57:46.799Z,36.27
2023-04-22T22:00:20.163Z,38.93
2023-04-22T22:02:48.083Z,38.73
2023-04-22T22:05:15.818Z,39.47
2023-04-22T22:07:43.381Z,41.40
2023-04-22T22:10:12.080Z,40.60
2023-04-22T22:12:39.308Z,42.23
2023-04-22T22:15:08.660Z,43.33
2023-04-22T22:17:38.047Z,40.30
2023-04-22T22:20:11.905Z,42.17
2023-04-22T22:22:39.582Z,52.73
2023-04-22T22:25:10.745Z,51.20
2023-04-22T22:27:38.774Z,48.67
2023-04-22T22:30:06.595Z,54.30
2023-04-22T22:32:33.734Z,57.97
2023-04-22T22:35:00.870Z,56.47
2023-04-22T22:37:28.164Z,57.00
2023-04-22T22:39:56.480Z,61.13
2023-04-22T22:42:23.578Z,55.40
2023-04-22T22:44:50.752Z,56.70
2023-04-22T22:47:18.417Z,60.57
2023-04-22T22:49:46.041Z,65.27
2023-04-22T22:52:13.408Z,58.30
2023-04-22T22:54:41.111Z,63.13
2023-04-22T22:57:09.106Z,57.50
2023-04-22T22:59:39.424Z,60.00
2023-04-22T23:02:06.875Z,62.23
2023-04-22T23:04:34.227Z,65.00
2023-04-22T23:07:01.504Z,54.97
2023-04-22T23:09:28.606Z,66.17
2023-04-22T23:11:55.767Z,61.63
2023-04-22T23:14:23.236Z,57.77
2023-04-22T23:16:50.950Z,65.70
2023-04-22T23:19:18.242Z,57.20
2023-04-22T23:21:45.821Z,52.57
2023-04-22T23:24:13.939Z,63.17
2023-04-22T23:26:41.345Z,68.43
2023-04-22T23:29:09.075Z,73.77
2023-04-22T23:31:36.656Z,62.70
2023-04-22T23:34:05.455Z,69.07
2023-04-22T23:36:33.770Z,69.67
2023-04-22T23:39:01.181Z,66.90
2023-04-22T23:41:28.435Z,69.37
2023-04-22T23:43:55.536Z,60.33
2023-04-22T23:46:22.742Z,58.20
2023-04-22T23:48:49.910Z,57.40
2023-04-22T23:51:17.276Z,58.30
2023-04-22T23:53:45.297Z,70.43
2023-04-22T23:56:13.209Z,55.20
2023-04-22T23:58:40.576Z,54.93
